createdAt,value
2023-04-26T00:02:05.479Z,99533.97
2023-04-26T00:04:39.502Z,99538.84
2023-04-26T00:07:13.980Z,99539.36
2023-04-26T00:09:48.576Z,99542.34
2023-04-26T00:12:22.535Z,99549.63
2023-04-26T00:14:56.100Z,99553.55
2023-04-26T00:17:29.566Z,99558.54
2023-04-26T00:20:07.079Z,99559.05
2023-04-26T00:22:41.056Z,99560.77
2023-04-26T00:25:15.282Z,99563.40
2023-04-26T00:27:49.093Z,99564.90
2023-04-26T00:30:23.385Z,99568.31
2023-04-26T00:32:57.073Z,99567.44
2023-04-26T00:35:30.504Z,99576.89
2023-04-26T00:38:04.257Z,99581.68
2023-04-26T00:40:37.743Z,99579.73
2023-04-26T00:43:11.308Z,99582.45
2023-04-26T00:45:45.332Z,99587.65
2023-04-26T00:48:19.620Z,99586.01
2023-04-26T00:50:53.693Z,99585.15
2023-04-26T00:53:28.291Z,99589.72
2023-04-26T00:56:02.288Z,99589.88
2023-04-26T00:58:36.330Z,99591.29
2023-04-26T01:01:10.723Z,99588.91
2023-04-26T01:03:47.147Z,99593.41
2023-04-26T01:06:21.166Z,99594.61
2023-04-26T01:08:59.086Z,99597.92
2023-04-26T01:11:32.861Z,99598.58
2023-04-26T01:14:08.877Z,99598.92
2023-04-26T01:16:42.615Z,99598.27
2023-04-26T01:19:16.881Z,99602.66
2023-04-26T01:21:52.530Z,99606.30
2023-04-26T01:24:28.796Z,99608.34
2023-04-26T01:27:04.524Z,99609.41
2023-04-26T01:29:38.091Z,99607.42
2023-04-26T01:32:12.268Z,99604.86
2023-04-26T01:34:45.500Z,99605.21
2023-04-26T01:37:19.270Z,99611.01
2023-04-26T01:39:52.830Z,99613.86
2023-04-26T01:42:27.936Z,99616.19
2023-04-26T01:45:01.985Z,99615.30
2023-04-26T01:47:55.576Z,99615.63
2023-04-26T01:50:30.157Z,99611.18
2023-04-26T01:53:03.755Z,99608.33
2023-04-26T01:55:37.519Z,99612.36
2023-04-26T01:58:11.076Z,99606.83
2023-04-26T02:00:45.120Z,99604.14
2023-04-26T02:03:18.789Z,99606.56
2023-04-26T02:05:52.387Z,99607.58
2023-04-26T02:08:26.156Z,99613.06
2023-04-26T02:11:00.188Z,99618.21
2023-04-26T02:13:33.658Z,99619.67
2023-04-26T02:16:08.323Z,99621.73
2023-04-26T02:18:42.492Z,99619.91
2023-04-26T02:21:18.156Z,99624.10
2023-04-26T02:23:52.147Z,99622.33
2023-04-26T02:26:27.310Z,99618.41
2023-04-26T02:29:00.862Z,99620.95
2023-04-26T02:31:34.545Z,99621.52
2023-04-26T02:34:08.171Z,99622.92
2023-04-26T02:36:41.494Z,99618.34
2023-04-26T02:39:16.035Z,99615.39
2023-04-26T02:41:49.801Z,99619.52
2023-04-26T02:44:23.331Z,99622.27
2023-04-26T02:46:57.538Z,99621.36
2023-04-26T02:49:32.323Z,99624.72
2023-04-26T02:52:06.397Z,99621.65
2023-04-26T02:54:40.191Z,99620.71
2023-04-26T02:57:13.691Z,99624.05
2023-04-26T02:59:47.818Z,99623.41
2023-04-26T03:02:22.138Z,99628.23
2023-04-26T03:04:57.421Z,99628.48
2023-04-26T03:07:31.790Z,99627.72
2023-04-26T03:10:06.485Z,99628.75
2023-04-26T03:12:41.192Z,99633.21
2023-04-26T03:15:15.346Z,99634.76
2023-04-26T03:17:49.396Z,99631.84
2023-04-26T03:20:23.262Z,99631.41
2023-04-26T03:22:56.523Z,99631.85
2023-04-26T03:25:30.227Z,99632.39
2023-04-26T03:28:04.367Z,99632.84
2023-04-26T03:30:38.280Z,99634.66
2023-04-26T03:33:12.469Z,99634.61
2023-04-26T03:35:46.485Z,99636.67
2023-04-26T03:38:20.046Z,99642.17
2023-04-26T03:40:53.917Z,99644.52
2023-04-26T03:43:28.050Z,99644.55
2023-04-26T03:46:02.100Z,99647.36
2023-04-26T03:48:35.672Z,99647.77
2023-04-26T03:51:09.572Z,99650.63
2023-04-26T03:53:44.151Z,99651.88
2023-04-26T03:56:17.961Z,99652.10
2023-04-26T03:58:51.649Z,99649.41
2023-04-26T04:01:26.232Z,99651.35
2023-04-26T04:04:00.678Z,99654.98
2023-04-26T04:06:35.914Z,99658.06
2023-04-26T04:09:09.665Z,99656.88
2023-04-26T04:11:45.157Z,99659.06
2023-04-26T04:14:20.553Z,99659.67
2023-04-26T04:16:54.163Z,99659.30
2023-04-26T04:19:28.449Z,99661.35
2023-04-26T04:22:02.394Z,99663.95
2023-04-26T04:24:36.334Z,99665.39
2023-04-26T04:27:09.762Z,99661.75
2023-04-26T04:29:46.554Z,99664.84
2023-04-26T04:32:20.346Z,99668.94
2023-04-26T04:34:54.234Z,99671.71
2023-04-26T04:37:27.741Z,99670.70
2023-04-26T04:40:01.669Z,99670.23
2023-04-26T04:42:38.434Z,99675.45
2023-04-26T04:45:15.306Z,99678.27
2023-04-26T04:47:49.621Z,99680.23
2023-04-26T04:50:23.793Z,99681.30
2023-04-26T04:52:57.156Z,99684.64
2023-04-26T04:55:32.453Z,99689.75
2023-04-26T04:58:07.102Z,99693.14
2023-04-26T05:00:41.145Z,99690.55
2023-04-26T05:03:34.406Z,99691.55
2023-04-26T05:06:10.483Z,99695.20
2023-04-26T05:08:44.418Z,99700.98
2023-04-26T05:11:18.502Z,99701.20
2023-04-26T05:13:52.989Z,99702.03
2023-04-26T05:16:27.965Z,99708.29
2023-04-26T05:19:02.425Z,99714.22
2023-04-26T05:21:36.928Z,99715.04
2023-04-26T05:24:10.554Z,99717.13
2023-04-26T05:26:44.170Z,99712.63
2023-04-26T05:29:41.917Z,99708.94
2023-04-26T05:32:34.879Z,99711.34
2023-04-26T05:35:19.370Z,99712.66
2023-04-26T05:37:52.756Z,99711.33
2023-04-26T05:40:28.481Z,99709.30
2023-04-26T05:43:02.602Z,99706.15
2023-04-26T05:45:37.393Z,99705.77
2023-04-26T05:48:11.342Z,99704.20
2023-04-26T05:50:45.140Z,99697.80
2023-04-26T05:53:19.548Z,99697.75
2023-04-26T05:55:53.658Z,99695.58
2023-04-26T05:58:27.745Z,99696.54
2023-04-26T06:01:02.296Z,99698.45
2023-04-26T06:03:37.859Z,99703.14
2023-04-26T06:06:12.693Z,99704.80
2023-04-26T06:08:47.896Z,99703.30
2023-04-26T06:11:21.743Z,99703.46
2023-04-26T06:13:55.568Z,99704.88
2023-04-26T06:16:29.440Z,99706.24
2023-04-26T06:19:03.234Z,99701.34
2023-04-26T06:21:36.716Z,99703.49
2023-04-26T06:24:11.321Z,99698.29
2023-04-26T06:26:45.965Z,99702.02
2023-04-26T06:29:20.706Z,99695.88
2023-04-26T06:31:55.109Z,99693.10
2023-04-26T06:34:28.798Z,99691.56
2023-04-26T06:37:03.056Z,99690.64
2023-04-26T06:39:38.643Z,99694.64
2023-04-26T06:42:12.519Z,99689.96
2023-04-26T06:45:19.277Z,99690.33
2023-04-26T06:47:54.689Z,99698.97
2023-04-26T06:50:30.973Z,99701.16
2023-04-26T06:53:05.006Z,99701.96
2023-04-26T06:55:38.640Z,99695.73
2023-04-26T06:58:12.572Z,99698.09
2023-04-26T07:00:47.000Z,99696.58
2023-04-26T07:03:21.775Z,99696.05
2023-04-26T07:05:56.725Z,99702.45
2023-04-26T07:08:30.700Z,99709.22
2023-04-26T07:11:04.756Z,99705.47
2023-04-26T07:13:39.908Z,99709.69
2023-04-26T07:16:13.854Z,99714.69
2023-04-26T07:18:48.768Z,99712.22
2023-04-26T07:21:22.901Z,99713.56
2023-04-26T07:23:58.744Z,99712.40
2023-04-26T07:26:32.181Z,99715.98
2023-04-26T07:29:05.920Z,99719.77
2023-04-26T07:31:39.894Z,99718.65
2023-04-26T07:34:13.519Z,99719.81
2023-04-26T07:36:47.624Z,99723.17
2023-04-26T07:39:21.283Z,99724.80
2023-04-26T07:41:55.806Z,99724.01
2023-04-26T07:47:03.629Z,99731.40
2023-04-26T07:49:37.722Z,99729.20
2023-04-26T07:52:11.723Z,99729.60
2023-04-26T07:54:47.103Z,99731.09
2023-04-26T07:57:21.233Z,99740.88
2023-04-26T07:59:55.038Z,99740.00
2023-04-26T08:02:43.335Z,99741.59
2023-04-26T08:05:19.453Z,99741.02
2023-04-26T08:07:53.350Z,99748.65
2023-04-26T08:10:27.613Z,99755.66
2023-04-26T08:13:03.826Z,99753.32
2023-04-26T08:15:37.566Z,99758.25
2023-04-26T08:18:11.151Z,99756.73
2023-04-26T08:20:44.815Z,99756.90
2023-04-26T08:23:20.015Z,99755.33
2023-04-26T08:25:54.071Z,99757.38
2023-04-26T08:28:28.000Z,99754.88
2023-04-26T08:31:01.824Z,99759.45
2023-04-26T08:33:35.800Z,99751.45
2023-04-26T08:36:10.672Z,99747.37
2023-04-26T08:38:44.230Z,99753.34
2023-04-26T08:41:24.211Z,99740.08
2023-04-26T08:44:00.119Z,99740.17
2023-04-26T08:46:40.812Z,99740.36
2023-04-26T08:49:25.699Z,99741.17
2023-04-26T08:52:00.383Z,99748.20
2023-04-26T08:54:36.579Z,99748.16
2023-04-26T08:57:10.606Z,99756.36
2023-04-26T08:59:45.021Z,99761.71
2023-04-26T09:02:22.520Z,99765.55
2023-04-26T09:04:56.902Z,99762.21
2023-04-26T09:07:37.231Z,99762.80
2023-04-26T09:10:13.399Z,99757.33
2023-04-26T09:12:47.331Z,99761.19
2023-04-26T09:15:22.249Z,99774.75
2023-04-26T09:17:56.310Z,99780.44
2023-04-26T09:20:31.650Z,99786.80
2023-04-26T09:23:10.400Z,99795.02
2023-04-26T09:25:44.157Z,99798.02
2023-04-26T09:28:27.718Z,99795.73
2023-04-26T09:31:02.399Z,99800.21
2023-04-26T09:33:36.060Z,99803.05
2023-04-26T09:36:19.003Z,99799.03
2023-04-26T09:38:52.993Z,99796.39
2023-04-26T09:41:32.587Z,99798.26
2023-04-26T09:44:06.461Z,99796.23
2023-04-26T09:46:40.022Z,99796.43
2023-04-26T09:49:13.533Z,99802.75
2023-04-26T09:52:04.255Z,99802.16
2023-04-26T09:54:48.956Z,99808.68
2023-04-26T09:57:24.018Z,99806.20
2023-04-26T09:59:57.886Z,99806.99
2023-04-26T10:02:32.207Z,99798.70
2023-04-26T10:05:08.737Z,99783.83
2023-04-26T10:07:43.089Z,99779.11
2023-04-26T10:10:18.386Z,99781.84
2023-04-26T10:12:52.153Z,99782.69
2023-04-26T10:15:26.117Z,99784.80
2023-04-26T10:18:00.692Z,99786.92
2023-04-26T10:20:34.740Z,99788.88
2023-04-26T10:23:16.004Z,99796.11
2023-04-26T10:25:51.548Z,99793.62
2023-04-26T10:29:02.646Z,99785.92
2023-04-26T10:32:12.278Z,99780.06
2023-04-26T10:34:47.840Z,99783.26
2023-04-26T10:37:21.729Z,99793.70
2023-04-26T10:40:30.008Z,99802.34
2023-04-26T10:43:33.271Z,99811.73
2023-04-26T10:46:43.482Z,99814.46
2023-04-26T10:49:26.239Z,99825.64
2023-04-26T10:52:17.610Z,99827.55
2023-04-26T10:54:53.824Z,99832.19
2023-04-26T10:57:48.078Z,99829.65
2023-04-26T11:00:37.938Z,99833.73
2023-04-26T11:03:15.682Z,99827.02
2023-04-26T11:06:10.101Z,99826.46
2023-04-26T11:08:43.779Z,99834.28
2023-04-26T11:11:21.441Z,99841.67
2023-04-26T11:13:55.578Z,99851.81
2023-04-26T11:16:32.406Z,99852.00
2023-04-26T11:19:06.982Z,99854.46
2023-04-26T11:21:41.969Z,99853.98
2023-04-26T11:24:18.957Z,99856.05
2023-04-26T11:26:56.494Z,99856.06
2023-04-26T11:29:30.660Z,99858.06
2023-04-26T11:32:04.260Z,99853.48
2023-04-26T11:34:39.590Z,99854.70
2023-04-26T11:37:13.652Z,99856.33
2023-04-26T11:39:48.940Z,99854.35
2023-04-26T11:42:28.671Z,99856.70
2023-04-26T11:45:02.208Z,99857.05
2023-04-26T11:47:36.942Z,99859.94
2023-04-26T11:50:13.473Z,99861.95
2023-04-26T11:52:47.808Z,99862.69
2023-04-26T11:55:25.846Z,99865.58
2023-04-26T11:57:59.619Z,99864.05
2023-04-26T12:00:33.605Z,99862.93
2023-04-26T12:03:11.933Z,99866.95
2023-04-26T12:05:55.545Z,99876.30
2023-04-26T12:08:29.669Z,99874.16
2023-04-26T12:11:06.608Z,99872.56
2023-04-26T12:13:43.092Z,99871.54
2023-04-26T12:16:26.269Z,99870.23
2023-04-26T12:19:01.353Z,99867.45
2023-04-26T12:21:45.113Z,99864.43
2023-04-26T12:24:30.222Z,99865.95
2023-04-26T12:27:04.680Z,99868.88
2023-04-26T12:29:38.613Z,99872.48
2023-04-26T12:32:12.626Z,99869.60
2023-04-26T12:34:46.983Z,99875.52
2023-04-26T12:37:20.551Z,99884.38
2023-04-26T12:39:54.087Z,99887.08
2023-04-26T12:42:27.811Z,99889.92
2023-04-26T12:45:01.141Z,99893.10
2023-04-26T12:47:35.342Z,99885.58
2023-04-26T12:50:12.330Z,99888.06
2023-04-26T12:52:46.643Z,99886.02
2023-04-26T12:55:22.438Z,99887.92
2023-04-26T12:57:56.115Z,99893.56
2023-04-26T13:00:30.270Z,99902.23
2023-04-26T13:03:04.479Z,99909.66
2023-04-26T13:05:38.578Z,99912.33
2023-04-26T13:08:12.944Z,99915.48
2023-04-26T13:10:46.853Z,99922.51
2023-04-26T13:13:26.151Z,99927.80
2023-04-26T13:16:03.718Z,99926.48
2023-04-26T13:18:37.874Z,99920.92
2023-04-26T13:21:11.527Z,99919.62
2023-04-26T13:23:46.664Z,99919.96
2023-04-26T13:26:20.873Z,99921.14
2023-04-26T13:28:55.104Z,99922.59
2023-04-26T13:31:29.104Z,99923.39
2023-04-26T13:34:03.489Z,99919.13
2023-04-26T13:36:37.585Z,99920.84
2023-04-26T13:39:11.386Z,99925.94
2023-04-26T13:41:45.625Z,99927.70
2023-04-26T13:44:20.258Z,99927.87
2023-04-26T13:46:54.905Z,99932.96
2023-04-26T13:49:28.594Z,99936.58
2023-04-26T13:52:02.208Z,99940.34
2023-04-26T13:54:36.447Z,99940.82
2023-04-26T13:57:12.186Z,99940.67
2023-04-26T13:59:46.192Z,99939.16
2023-04-26T14:02:20.049Z,99940.80
2023-04-26T14:04:55.220Z,99941.19
2023-04-26T14:07:29.726Z,99937.62
2023-04-26T14:10:03.976Z,99944.84
2023-04-26T14:12:37.833Z,99950.59
2023-04-26T14:15:12.785Z,99953.80
2023-04-26T14:17:47.714Z,99960.64
2023-04-26T14:20:23.905Z,99963.28
2023-04-26T14:22:57.674Z,99961.85
2023-04-26T14:25:31.487Z,99966.52
2023-04-26T14:28:05.579Z,99972.11
2023-04-26T14:30:39.637Z,99979.32
2023-04-26T14:33:13.235Z,99978.00
2023-04-26T14:35:47.592Z,99979.91
2023-04-26T14:38:21.608Z,99982.75
2023-04-26T14:40:55.126Z,99987.99
2023-04-26T14:43:28.952Z,99990.35
2023-04-26T14:46:03.706Z,99990.51
2023-04-26T14:48:37.512Z,99988.80
2023-04-26T14:51:11.590Z,99990.39
2023-04-26T14:53:45.216Z,99994.05
2023-04-26T14:56:18.644Z,99995.77
2023-04-26T14:58:52.428Z,99999.20
2023-04-26T15:01:26.561Z,100003.95
2023-04-26T15:04:01.247Z,100001.05
2023-04-26T15:06:35.886Z,100002.26
2023-04-26T15:09:12.049Z,100004.98
2023-04-26T15:11:45.933Z,100009.35
2023-04-26T15:14:19.877Z,100010.77
2023-04-26T15:16:53.760Z,100011.58
2023-04-26T15:19:27.500Z,100011.90
2023-04-26T15:22:01.516Z,100012.36
2023-04-26T15:24:39.199Z,100017.98
2023-04-26T15:27:13.032Z,100023.68
2023-04-26T15:29:46.577Z,100025.80
2023-04-26T15:32:20.337Z,100026.79
2023-04-26T15:34:53.994Z,100028.25
2023-04-26T15:37:27.646Z,100028.06
2023-04-26T15:40:01.560Z,100028.00
2023-04-26T15:42:35.482Z,100027.05
2023-04-26T15:45:11.613Z,100029.06
2023-04-26T15:47:47.546Z,100029.89
2023-04-26T15:50:21.257Z,100029.89
2023-04-26T15:52:55.451Z,100026.49
2023-04-26T15:55:29.403Z,100025.56
2023-04-26T15:58:03.292Z,100024.70
2023-04-26T16:00:37.522Z,100023.14
2023-04-26T16:03:11.738Z,100025.19
2023-04-26T16:05:45.476Z,100023.08
2023-04-26T16:08:38.777Z,100019.90
2023-04-26T16:11:14.976Z,100023.81
2023-04-26T16:13:52.192Z,100026.10
2023-04-26T16:16:26.460Z,100029.02
2023-04-26T16:19:00.690Z,100029.05
2023-04-26T16:21:34.488Z,100032.10
2023-04-26T16:24:11.827Z,100031.52
2023-04-26T16:26:47.230Z,100031.41
2023-04-26T16:29:20.860Z,100033.90
2023-04-26T16:31:54.468Z,100036.67
2023-04-26T16:34:28.644Z,100032.67
2023-04-26T16:37:02.617Z,100035.60
2023-04-26T16:39:36.504Z,100039.29
2023-04-26T16:42:10.618Z,100045.98
2023-04-26T16:44:44.154Z,100045.97
2023-04-26T16:47:18.172Z,100053.20
2023-04-26T16:49:53.061Z,100051.79
2023-04-26T16:52:27.221Z,100048.98
2023-04-26T16:55:02.356Z,100050.48
2023-04-26T16:57:35.832Z,100054.23
2023-04-26T17:00:12.346Z,100052.59
2023-04-26T17:02:46.413Z,100054.35
2023-04-26T17:05:21.022Z,100053.81
2023-04-26T17:07:56.267Z,100056.11
2023-04-26T17:10:34.645Z,100051.34
2023-04-26T17:13:10.339Z,100054.67
2023-04-26T17:15:45.576Z,100059.04
2023-04-26T17:18:19.404Z,100063.42
2023-04-26T17:20:57.219Z,100068.83
2023-04-26T17:23:33.210Z,100070.57
2023-04-26T17:26:06.761Z,100070.27
2023-04-26T17:28:40.949Z,100076.07
2023-04-26T17:31:16.950Z,100075.65
2023-04-26T17:33:51.958Z,100079.48
2023-04-26T17:36:27.250Z,100080.23
2023-04-26T17:39:00.934Z,100081.86
2023-04-26T17:41:36.984Z,100081.63
2023-04-26T17:44:13.880Z,100082.42
2023-04-26T17:46:48.312Z,100082.45
2023-04-26T17:49:26.757Z,100084.73
2023-04-26T17:52:00.911Z,100089.79
2023-04-26T17:54:34.767Z,100094.78
2023-04-26T17:57:08.770Z,100098.27
2023-04-26T17:59:43.842Z,100100.67
2023-04-26T18:02:18.789Z,100103.52
2023-04-26T18:04:56.040Z,100107.52
2023-04-26T18:07:30.710Z,100112.72
2023-04-26T18:10:09.758Z,100115.48
2023-04-26T18:12:43.989Z,100117.02
2023-04-26T18:15:19.688Z,100120.42
2023-04-26T18:17:54.601Z,100119.92
2023-04-26T18:20:29.571Z,100120.20
2023-04-26T18:23:06.399Z,100122.96
2023-04-26T18:25:41.890Z,100125.27
2023-04-26T18:28:15.554Z,100129.66
2023-04-26T18:30:50.270Z,100129.05
2023-04-26T18:33:25.188Z,100129.98
2023-04-26T18:35:59.691Z,100131.16
2023-04-26T18:38:35.282Z,100135.64
2023-04-26T18:41:10.087Z,100138.77
2023-04-26T18:43:46.041Z,100140.73
2023-04-26T18:46:20.882Z,100141.30
2023-04-26T18:48:55.420Z,100142.91
2023-04-26T18:51:32.798Z,100144.11
2023-04-26T18:54:09.433Z,100146.62
2023-04-26T18:56:45.741Z,100149.35
2023-04-26T18:59:21.684Z,100154.90
2023-04-26T19:01:56.805Z,100154.19
2023-04-26T19:04:32.754Z,100156.52
2023-04-26T19:07:07.169Z,100158.06
2023-04-26T19:09:53.085Z,100160.51
2023-04-26T19:12:31.741Z,100160.49
2023-04-26T19:15:09.438Z,100162.23
2023-04-26T19:17:46.679Z,100168.90
2023-04-26T19:20:23.046Z,100167.13
2023-04-26T19:22:58.943Z,100168.02
2023-04-26T19:25:34.197Z,100171.27
2023-04-26T19:28:10.180Z,100171.37
2023-04-26T19:30:48.046Z,100169.67
2023-04-26T19:33:24.882Z,100169.98
2023-04-26T19:36:00.893Z,100174.23
2023-04-26T19:38:38.519Z,100173.44
2023-04-26T19:41:14.143Z,100177.24
2023-04-26T19:43:50.516Z,100176.66
2023-04-26T19:46:26.375Z,100175.75
2023-04-26T19:49:03.390Z,100177.94
2023-04-26T19:51:40.939Z,100181.19
2023-04-26T19:54:20.331Z,100181.83
2023-04-26T19:56:56.833Z,100185.59
2023-04-26T19:59:36.002Z,100185.73
2023-04-26T20:02:14.943Z,100185.29
2023-04-26T20:04:51.241Z,100186.71
2023-04-26T20:07:30.237Z,100185.69
2023-04-26T20:10:03.673Z,100188.45
2023-04-26T20:12:43.686Z,100184.46
2023-04-26T20:15:19.762Z,100190.09
2023-04-26T20:17:55.849Z,100193.05
2023-04-26T20:20:32.281Z,100194.04
2023-04-26T20:23:08.550Z,100195.41
2023-04-26T20:25:43.325Z,100200.71
2023-04-26T20:28:18.585Z,100198.02
2023-04-26T20:30:54.115Z,100201.77
2023-04-26T20:33:31.112Z,100202.34
2023-04-26T20:36:09.233Z,100199.83
2023-04-26T20:38:43.543Z,100197.93
2023-04-26T20:41:17.998Z,100197.40
2023-04-26T20:43:54.794Z,100198.69
2023-04-26T20:46:29.062Z,100197.94
2023-04-26T20:49:04.044Z,100197.45
2023-04-26T20:51:38.000Z,100201.55
2023-04-26T20:54:12.672Z,100201.52
2023-04-26T20:56:46.955Z,100200.53
2023-04-26T20:59:20.940Z,100203.82
2023-04-26T21:01:54.570Z,100202.27
2023-04-26T21:04:28.286Z,100204.66
2023-04-26T21:07:02.317Z,100206.89
2023-04-26T21:09:35.901Z,100209.70
2023-04-26T21:12:10.286Z,100208.95
2023-04-26T21:14:46.255Z,100214.69
2023-04-26T21:17:20.956Z,100214.26
2023-04-26T21:19:54.446Z,100217.45
2023-04-26T21:22:28.550Z,100219.01
2023-04-26T21:25:02.217Z,100219.95
2023-04-26T21:27:36.108Z,100219.94
2023-04-26T21:30:12.939Z,100221.20
2023-04-26T21:32:46.439Z,100222.58
2023-04-26T21:35:19.987Z,100227.84
2023-04-26T21:37:53.571Z,100234.11
2023-04-26T21:40:27.315Z,100235.23
2023-04-26T21:43:05.245Z,100235.17
2023-04-26T21:45:39.294Z,100241.84
2023-04-26T21:48:13.161Z,100240.97
2023-04-26T21:50:49.978Z,100246.39
2023-04-26T21:53:23.204Z,100250.69
2023-04-26T21:55:57.457Z,100252.55
2023-04-26T21:58:31.547Z,100255.08
2023-04-26T22:01:12.617Z,100258.67
2023-04-26T22:03:46.850Z,100258.41
2023-04-26T22:06:20.726Z,100263.73
2023-04-26T22:08:54.417Z,100265.73
2023-04-26T22:11:28.349Z,100266.16
2023-04-26T22:14:02.009Z,100264.74
2023-04-26T22:16:35.726Z,100265.75
2023-04-26T22:19:09.956Z,100272.88
2023-04-26T22:21:43.540Z,100279.13
2023-04-26T22:24:17.862Z,100277.32
2023-04-26T22:26:51.458Z,100277.30
2023-04-26T22:29:25.576Z,100283.06
2023-04-26T22:31:59.162Z,100287.09
2023-04-26T22:34:32.517Z,100288.34
2023-04-26T22:37:19.685Z,100285.66
2023-04-26T22:39:56.917Z,100288.70
2023-04-26T22:42:30.692Z,100291.38
2023-04-26T22:45:04.510Z,100298.95
2023-04-26T22:47:38.189Z,100300.21
2023-04-26T22:50:13.476Z,100299.53
2023-04-26T22:52:47.811Z,100299.98
2023-04-26T22:55:21.881Z,100305.16
2023-04-26T22:57:55.447Z,100311.05
2023-04-26T23:00:28.995Z,100312.54
2023-04-26T23:03:03.601Z,100313.80
2023-04-26T23:05:38.117Z,100318.98
2023-04-26T23:08:12.106Z,100323.31
2023-04-26T23:10:45.601Z,100324.77
2023-04-26T23:13:19.851Z,100328.69
2023-04-26T23:15:53.461Z,100329.05
2023-04-26T23:18:27.983Z,100329.80
2023-04-26T23:21:01.778Z,100330.27
2023-04-26T23:23:35.936Z,100332.27
2023-04-26T23:26:09.890Z,100333.18
2023-04-26T23:28:43.289Z,100334.27
2023-04-26T23:31:17.315Z,100334.09
2023-04-26T23:33:50.982Z,100336.67
2023-04-26T23:36:25.061Z,100340.60
2023-04-26T23:38:58.427Z,100339.78
2023-04-26T23:41:32.164Z,100341.96
2023-04-26T23:44:06.077Z,100343.24
2023-04-26T23:46:40.264Z,100344.79
2023-04-26T23:49:14.612Z,100342.86
2023-04-26T23:51:48.608Z,100343.21
2023-04-26T23:54:22.597Z,100343.16
2023-04-26T23:56:56.145Z,100339.52
2023-04-26T23:59:29.779Z,100346.13
